sensor_id;sensor_type;location;lat;lon;timestamp;P1;durP1;ratioP1;P2;durP2;ratioP2
61739;SDS011;47645;45.288;12.038;2023-03-01T00:02:00;17.9;;;10.4;;
61739;SDS011;47645;45.288;12.038;2023-03-01T00:12:00;15.7;;;9.9;;
61739;SDS011;47645;45.288;12.038;2023-03-01T00:22:01;14.1;;;8.1;;
61739;SDS011;47645;45.288;12.038;2023-03-01T00:32:01;15.7;;;8.6;;
61739;SDS011;47645;45.288;12.038;2023-03-01T00:42:02;15.9;;;8.3;;
61739;SDS011;47645;45.288;12.038;2023-03-01T00:52:02;17.8;;;11.7;;
61739;SDS011;47645;45.288;12.038;2023-03-01T01:02:02;16.4;;;9.1;;
61739;SDS011;47645;45.288;12.038;2023-03-01T01:12:03;16.6;;;9.9;;
61739;SDS011;47645;45.288;12.038;2023-03-01T01:22:03;18.5;;;9.7;;
61739;SDS011;47645;45.288;12.038;2023-03-01T01:32:04;14.1;;;8.8;;
61739;SDS011;47645;45.288;12.038;2023-03-01T01:42:04;15.0;;;9.2;;
61739;SDS011;47645;45.288;12.038;2023-03-01T01:52:05;14.6;;;9.4;;
61739;SDS011;47645;45.288;12.038;2023-03-01T02:02:04;16.8;;;11.3;;
61739;SDS011;47645;45.288;12.038;2023-03-01T02:12:05;14.5;;;8.5;;
61739;SDS011;47645;45.288;12.038;2023-03-01T02:22:09;14.1;;;8.5;;
61739;SDS011;47645;45.288;12.038;2023-03-01T02:32:05;15.3;;;8.7;;
61739;SDS011;47645;45.288;12.038;2023-03-01T02:42:06;17.0;;;10.1;;
61739;SDS011;47645;45.288;12.038;2023-03-01T02:52:11;16.1;;;10.1;;
61739;SDS011;47645;45.288;12.038;2023-03-01T03:02:07;14.8;;;8.2;;
61739;SDS011;47645;45.288;12.038;2023-03-01T03:12:07;12.7;;;7.4;;
61739;SDS011;47645;45.288;12.038;2023-03-01T03:22:09;14.3;;;7.8;;
61739;SDS011;47645;45.288;12.038;2023-03-01T03:32:08;14.8;;;9.5;;
61739;SDS011;47645;45.288;12.038;2023-03-01T03:42:10;15.0;;;8.8;;
61739;SDS011;47645;45.288;12.038;2023-03-01T03:52:13;14.3;;;8.5;;
61739;SDS011;47645;45.288;12.038;2023-03-01T04:02:09;14.5;;;9.8;;
61739;SDS011;47645;45.288;12.038;2023-03-01T04:12:09;14.6;;;8.7;;
61739;SDS011;47645;45.288;12.038;2023-03-01T04:22:11;14.0;;;9.5;;
61739;SDS011;47645;45.288;12.038;2023-03-01T04:32:10;12.4;;;7.9;;
61739;SDS011;47645;45.288;12.038;2023-03-01T04:42:10;12.4;;;7.7;;
61739;SDS011;47645;45.288;12.038;2023-03-01T04:52:10;11.5;;;7.3;;
61739;SDS011;47645;45.288;12.038;2023-03-01T05:02:11;13.3;;;7.6;;
61739;SDS011;47645;45.288;12.038;2023-03-01T05:12:11;13.0;;;7.9;;
61739;SDS011;47645;45.288;12.038;2023-03-01T05:22:11;11.7;;;7.3;;
61739;SDS011;47645;45.288;12.038;2023-03-01T05:32:15;13.7;;;7.7;;
61739;SDS011;47645;45.288;12.038;2023-03-01T05:42:12;12.2;;;8.0;;
61739;SDS011;47645;45.288;12.038;2023-03-01T05:52:12;15.4;;;8.2;;
61739;SDS011;47645;45.288;12.038;2023-03-01T06:02:13;15.9;;;9.5;;
61739;SDS011;47645;45.288;12.038;2023-03-01T06:12:13;10.9;;;7.6;;
61739;SDS011;47645;45.288;12.038;2023-03-01T06:22:13;13.2;;;7.3;;
61739;SDS011;47645;45.288;12.038;2023-03-01T06:32:14;11.6;;;6.2;;
61739;SDS011;47645;45.288;12.038;2023-03-01T06:42:14;11.8;;;7.6;;
61739;SDS011;47645;45.288;12.038;2023-03-01T06:52:14;13.1;;;6.8;;
61739;SDS011;47645;45.288;12.038;2023-03-01T07:02:15;11.8;;;6.5;;
61739;SDS011;47645;45.288;12.038;2023-03-01T07:12:15;10.4;;;6.4;;
61739;SDS011;47645;45.288;12.038;2023-03-01T07:22:16;12.9;;;8.3;;
61739;SDS011;47645;45.288;12.038;2023-03-01T07:32:16;10.6;;;6.6;;
61739;SDS011;47645;45.288;12.038;2023-03-01T07:42:16;13.6;;;7.3;;
61739;SDS011;47645;45.288;12.038;2023-03-01T07:52:16;11.9;;;6.9;;
61739;SDS011;47645;45.288;12.038;2023-03-01T08:02:17;11.2;;;6.1;;
61739;SDS011;47645;45.288;12.038;2023-03-01T08:12:17;10.0;;;7.2;;
61739;SDS011;47645;45.288;12.038;2023-03-01T08:22:18;10.3;;;5.8;;
61739;SDS011;47645;45.288;12.038;2023-03-01T08:32:18;10.0;;;5.9;;
61739;SDS011;47645;45.288;12.038;2023-03-01T08:42:18;10.5;;;5.7;;
61739;SDS011;47645;45.288;12.038;2023-03-01T08:52:19;9.6;;;5.6;;
61739;SDS011;47645;45.288;12.038;2023-03-01T09:02:19;9.5;;;5.8;;
61739;SDS011;47645;45.288;12.038;2023-03-01T09:12:20;11.7;;;6.6;;
61739;SDS011;47645;45.288;12.038;2023-03-01T09:22:20;9.8;;;5.7;;
61739;SDS011;47645;45.288;12.038;2023-03-01T09:32:20;10.1;;;5.2;;
61739;SDS011;47645;45.288;12.038;2023-03-01T09:42:21;10.8;;;6.6;;
61739;SDS011;47645;45.288;12.038;2023-03-01T09:52:24;11.5;;;5.2;;
61739;SDS011;47645;45.288;12.038;2023-03-01T10:02:24;11.9;;;5.8;;
61739;SDS011;47645;45.288;12.038;2023-03-01T10:12:24;10.8;;;6.2;;
61739;SDS011;47645;45.288;12.038;2023-03-01T10:22:24;13.0;;;5.8;;
61739;SDS011;47645;45.288;12.038;2023-03-01T10:32:23;12.6;;;6.9;;
61739;SDS011;47645;45.288;12.038;2023-03-01T10:42:26;12.3;;;6.2;;
61739;SDS011;47645;45.288;12.038;2023-03-01T10:52:26;10.4;;;5.9;;
61739;SDS011;47645;45.288;12.038;2023-03-01T11:02:28;15.3;;;6.6;;
61739;SDS011;47645;45.288;12.038;2023-03-01T11:12:25;13.1;;;5.3;;
61739;SDS011;47645;45.288;12.038;2023-03-01T11:22:25;16.0;;;5.9;;
61739;SDS011;47645;45.288;12.038;2023-03-01T11:32:27;21.5;;;6.1;;
61739;SDS011;47645;45.288;12.038;2023-03-01T11:42:29;23.4;;;6.4;;
61739;SDS011;47645;45.288;12.038;2023-03-01T11:52:29;25.6;;;7.3;;
61739;SDS011;47645;45.288;12.038;2023-03-01T12:02:35;33.3;;;7.8;;
61739;SDS011;47645;45.288;12.038;2023-03-01T12:12:32;21.2;;;6.2;;
61739;SDS011;47645;45.288;12.038;2023-03-01T12:22:29;32.6;;;7.8;;
61739;SDS011;47645;45.288;12.038;2023-03-01T12:32:33;16.0;;;5.8;;
61739;SDS011;47645;45.288;12.038;2023-03-01T12:42:31;18.9;;;6.3;;
61739;SDS011;47645;45.288;12.038;2023-03-01T12:52:33;17.7;;;5.4;;
61739;SDS011;47645;45.288;12.038;2023-03-01T13:02:31;14.8;;;5.4;;
61739;SDS011;47645;45.288;12.038;2023-03-01T13:12:48;20.9;;;5.4;;
61739;SDS011;47645;45.288;12.038;2023-03-01T13:22:32;20.1;;;6.3;;
61739;SDS011;47645;45.288;12.038;2023-03-01T13:32:33;16.5;;;5.5;;
61739;SDS011;47645;45.288;12.038;2023-03-01T13:42:34;11.0;;;6.1;;
61739;SDS011;47645;45.288;12.038;2023-03-01T13:52:35;10.5;;;6.6;;
61739;SDS011;47645;45.288;12.038;2023-03-01T14:02:32;12.2;;;6.2;;
61739;SDS011;47645;45.288;12.038;2023-03-01T14:12:37;9.4;;;5.2;;
61739;SDS011;47645;45.288;12.038;2023-03-01T14:22:33;10.4;;;5.7;;
61739;SDS011;47645;45.288;12.038;2023-03-01T14:32:33;8.7;;;4.0;;
61739;SDS011;47645;45.288;12.038;2023-03-01T14:42:34;10.1;;;4.6;;
61739;SDS011;47645;45.288;12.038;2023-03-01T14:52:35;7.6;;;4.4;;
61739;SDS011;47645;45.288;12.038;2023-03-01T15:02:34;9.3;;;4.3;;
61739;SDS011;47645;45.288;12.038;2023-03-01T15:12:36;8.1;;;4.5;;
61739;SDS011;47645;45.288;12.038;2023-03-01T15:22:35;10.3;;;4.5;;
61739;SDS011;47645;45.288;12.038;2023-03-01T15:32:36;9.6;;;3.4;;
61739;SDS011;47645;45.288;12.038;2023-03-01T15:42:36;6.1;;;2.9;;
61739;SDS011;47645;45.288;12.038;2023-03-01T15:52:40;8.8;;;3.2;;
61739;SDS011;47645;45.288;12.038;2023-03-01T16:02:36;11.2;;;3.5;;
61739;SDS011;47645;45.288;12.038;2023-03-01T16:12:39;15.0;;;4.2;;
61739;SDS011;47645;45.288;12.038;2023-03-01T16:22:37;8.8;;;2.8;;
61739;SDS011;47645;45.288;12.038;2023-03-01T16:32:38;4.4;;;2.2;;
61739;SDS011;47645;45.288;12.038;2023-03-01T16:42:39;8.4;;;2.6;;
61739;SDS011;47645;45.288;12.038;2023-03-01T16:52:38;6.6;;;2.3;;
61739;SDS011;47645;45.288;12.038;2023-03-01T17:02:39;8.2;;;3.2;;
61739;SDS011;47645;45.288;12.038;2023-03-01T17:12:39;6.5;;;2.9;;
61739;SDS011;47645;45.288;12.038;2023-03-01T17:22:39;7.9;;;3.1;;
61739;SDS011;47645;45.288;12.038;2023-03-01T17:32:40;10.8;;;3.6;;
61739;SDS011;47645;45.288;12.038;2023-03-01T17:42:40;4.4;;;2.2;;
61739;SDS011;47645;45.288;12.038;2023-03-01T17:52:40;5.2;;;2.7;;
61739;SDS011;47645;45.288;12.038;2023-03-01T18:02:41;5.6;;;2.5;;
61739;SDS011;47645;45.288;12.038;2023-03-01T18:12:41;5.4;;;2.3;;
61739;SDS011;47645;45.288;12.038;2023-03-01T18:22:41;4.6;;;2.3;;
61739;SDS011;47645;45.288;12.038;2023-03-01T18:32:44;3.9;;;2.3;;
61739;SDS011;47645;45.288;12.038;2023-03-01T18:42:42;5.4;;;2.9;;
61739;SDS011;47645;45.288;12.038;2023-03-01T18:52:42;4.5;;;2.8;;
61739;SDS011;47645;45.288;12.038;2023-03-01T19:02:43;3.8;;;2.4;;
61739;SDS011;47645;45.288;12.038;2023-03-01T19:12:43;5.2;;;2.1;;
61739;SDS011;47645;45.288;12.038;2023-03-01T19:22:44;4.0;;;1.9;;
61739;SDS011;47645;45.288;12.038;2023-03-01T19:32:44;3.7;;;1.8;;
61739;SDS011;47645;45.288;12.038;2023-03-01T19:42:44;3.0;;;1.6;;
61739;SDS011;47645;45.288;12.038;2023-03-01T19:52:45;3.8;;;2.4;;
61739;SDS011;47645;45.288;12.038;2023-03-01T20:02:45;3.9;;;2.4;;
61739;SDS011;47645;45.288;12.038;2023-03-01T20:12:45;3.2;;;2.4;;
61739;SDS011;47645;45.288;12.038;2023-03-01T20:22:46;3.7;;;1.9;;
61739;SDS011;47645;45.288;12.038;2023-03-01T20:32:46;3.6;;;1.9;;
61739;SDS011;47645;45.288;12.038;2023-03-01T20:42:47;3.5;;;1.7;;
61739;SDS011;47645;45.288;12.038;2023-03-01T20:52:47;4.1;;;2.0;;
61739;SDS011;47645;45.288;12.038;2023-03-01T21:02:48;3.8;;;2.0;;
61739;SDS011;47645;45.288;12.038;2023-03-01T21:12:48;2.6;;;1.6;;
61739;SDS011;47645;45.288;12.038;2023-03-01T21:22:48;2.2;;;1.2;;
61739;SDS011;47645;45.288;12.038;2023-03-01T21:32:49;3.0;;;1.5;;
61739;SDS011;47645;45.288;12.038;2023-03-01T21:42:50;3.2;;;1.3;;
61739;SDS011;47645;45.288;12.038;2023-03-01T21:52:51;4.6;;;1.7;;
61739;SDS011;47645;45.288;12.038;2023-03-01T22:02:52;3.3;;;1.8;;
61739;SDS011;47645;45.288;12.038;2023-03-01T22:12:52;4.0;;;2.3;;
61739;SDS011;47645;45.288;12.038;2023-03-01T22:22:51;5.9;;;3.1;;
61739;SDS011;47645;45.288;12.038;2023-03-01T22:32:51;5.8;;;3.1;;
61739;SDS011;47645;45.288;12.038;2023-03-01T22:42:52;4.8;;;2.8;;
61739;SDS011;47645;45.288;12.038;2023-03-01T22:52:51;5.7;;;2.8;;
61739;SDS011;47645;45.288;12.038;2023-03-01T23:02:51;5.5;;;2.9;;
61739;SDS011;47645;45.288;12.038;2023-03-01T23:12:52;3.4;;;2.3;;
61739;SDS011;47645;45.288;12.038;2023-03-01T23:22:52;3.1;;;1.9;;
61739;SDS011;47645;45.288;12.038;2023-03-01T23:32:52;4.2;;;2.1;;
61739;SDS011;47645;45.288;12.038;2023-03-01T23:42:53;3.2;;;1.9;;
61739;SDS011;47645;45.288;12.038;2023-03-01T23:52:53;4.9;;;1.8;;
